Weather at Erding Air Base [CLOSED]

Public forecast

Using degrees Celsius for public forecast. Weather courtesy of forecast.io.

Closest aviation weather report (METAR) to Erding Air Base

Closest report is Munich Airport, 6.8 nm (12.5 km) WNW.

2024/07/17 19:50 (retrieved 32 minutes ago)

EDDM 171950Z AUTO 18003KT CAVOK 19/16 Q1023 NOSIG

Closest aviation forecast (TAF) to Erding Air Base

Closest forecast is Munich Airport, 6.8 nm (12.5 km) WNW.

2024/07/17 18:26 (retrieved 2 hours ago)

TAF EDDM 171700Z 1718/1824 VRB02KT 9999 FEW045 PROB40 TEMPO 1801/1805 1500 BCFG BECMG 1806/1808 08007KT BECMG 1818/1820 VRB02KT